LiveATC.Net - Listen to live air traffic control over the Internet!


ICAO: EPPO  IATA: POZ   Airport: Poznan-Lawica Henryk Wieniawski Airport
City: Poznan
Country: Poland   Continent: Europe
EPPO METAR Weather: EPPO 251300Z 21013KT 9999 SCT036CB 10/00 Q1005
EPPO ADS-B Flight Tracking  (ADSBExchange)
EPPO Flight Activity (FlightAware)

EPPO Twr/App/FIS
Feed Status: UP   Listeners: 0
Listen in your browser - HTML5 player (in browser, HTML5)
Click here to listen with your own player (launches your MP3 player)
Archive Access: EPPO Twr/App/FIS
FacilityFrequency
Poznan Approach127.225
Poznan Approach129.025
Poznan FIS126.300
Poznan Tower119.975

NOTICE

Unauthorized use prohibited. See LiveATC.net Terms of Service


Airport/ARTCC Code
Frequency Search
(e.g., 124.400, 128.75)
Site-wide search
 


Browse Feeds
Top 50 Feeds
HF Oceanic Feeds
Coverage Map
Bad Weather Areas

LiveATC FAQ

Increase Coverage

Contact LiveATC.net
Press Inquiries

LiveATC on iPhone
LiveATC on Android

LiveATC Mobile
(Mobile browser)

ATC Audio Archives
Interesting Recordings

LiveATC Forums


Home Page
About LiveATC.net


Terms of Use
Privacy Policy

AIRMETs/SIGMETs

FAA Airport Status
NAS Status
Arrival Demand


Server Software By:
Icecast.org
Liquidsoap